Time;durP1;ratioP1;P1;durP2;ratioP2;P2;SDS_P1;SDS_P2;PMS_P1;PMS_P2;Temp;Humidity;BMP_temperature;BMP_pressure;BME280_temperature;BME280_humidity;BME280_pressure;Samples;Min_cycle;Max_cycle;Signal;HPM_P1;HPM_P2
2022/08/07 00:00:21;;;;;;;;;;;22.80;50.70;;;;;;470373;253;1259;-74
2022/08/07 00:02:22;;;;;;;;;;;22.80;50.80;;;;;;469890;253;1149;-74
2022/08/07 00:04:23;;;;;;;;;;;22.80;50.90;;;;;;484112;246;2184;-74
2022/08/07 00:06:25;;;;;;;;;;;22.90;51.10;;;;;;470291;253;1226;-74
2022/08/07 00:08:26;;;;;;;;;;;22.90;51.20;;;;;;469933;253;988;-74
2022/08/07 00:10:28;;;;;;;;;;;23.00;51.20;;;;;;478409;249;1240;-74
2022/08/07 00:12:30;;;;;;;;;;;23.10;51.10;;;;;;484186;246;1129;-74
2022/08/07 00:14:30;;;;;;;;;;;23.20;51.20;;;;;;470275;254;1482;-74
2022/08/07 00:16:32;;;;;;;;;;;23.30;51.10;;;;;;469808;253;1240;-74
2022/08/07 00:18:33;;;;;;;;;;;23.30;51.10;;;;;;478366;249;1517;-74
2022/08/07 00:20:34;;;;;;;;;;;23.30;51.10;;;;;;484066;246;1178;-74
2022/08/07 00:22:36;;;;;;;;;;;23.30;51.10;;;;;;470406;253;1193;-74
2022/08/07 00:24:37;;;;;;;;;;;23.30;51.00;;;;;;469854;253;2132;-74
2022/08/07 00:26:38;;;;;;;;;;;23.30;50.90;;;;;;484126;246;1329;-74
2022/08/07 00:28:40;;;;;;;;;;;23.30;50.90;;;;;;470327;254;1257;-74
2022/08/07 00:30:41;;;;;;;;;;;23.20;50.90;;;;;;469883;253;1185;-74
2022/08/07 00:32:43;;;;;;;;;;;23.20;50.90;;;;;;484122;246;1124;-74
2022/08/07 00:34:47;;;;;;;;;;;23.20;50.90;;;;;;470333;254;1141;-74
2022/08/07 00:36:46;;;;;;;;;;;23.10;51.00;;;;;;469633;254;1459;-74
2022/08/07 00:38:47;;;;;;;;;;;23.10;50.90;;;;;;484158;246;1181;-74
2022/08/07 00:40:48;;;;;;;;;;;23.00;51.00;;;;;;470427;253;973;-74
2022/08/07 00:42:50;;;;;;;;;;;22.90;51.00;;;;;;469920;253;1214;-74
2022/08/07 00:44:51;;;;;;;;;;;22.80;51.00;;;;;;478398;249;2135;-74
2022/08/07 00:46:52;;;;;;;;;;;22.80;51.10;;;;;;484114;246;1175;-74
2022/08/07 00:48:54;;;;;;;;;;;22.80;51.20;;;;;;470410;253;1094;-74
2022/08/07 00:50:55;;;;;;;;;;;22.70;51.20;;;;;;469910;253;1326;-74
2022/08/07 00:52:56;;;;;;;;;;;22.70;51.20;;;;;;484157;246;1214;-74
2022/08/07 00:54:58;;;;;;;;;;;22.60;51.10;;;;;;470317;254;1115;-74
2022/08/07 00:56:59;;;;;;;;;;;22.70;51.30;;;;;;469878;253;1099;-74
2022/08/07 00:59:00;;;;;;;;;;;22.60;51.20;;;;;;478413;249;1278;-74
2022/08/07 01:01:03;;;;;;;;;;;22.60;51.30;;;;;;484105;246;1318;-74
2022/08/07 01:03:03;;;;;;;;;;;22.50;51.60;;;;;;470330;253;1455;-74
2022/08/07 01:05:05;;;;;;;;;;;22.60;51.70;;;;;;469879;253;2137;-74
2022/08/07 01:07:07;;;;;;;;;;;22.60;51.90;;;;;;478353;246;1164;-74
2022/08/07 01:09:08;;;;;;;;;;;22.70;51.80;;;;;;484194;246;1106;-74
2022/08/07 01:11:09;;;;;;;;;;;22.70;51.60;;;;;;470317;253;1264;-74
2022/08/07 01:13:11;;;;;;;;;;;22.80;51.50;;;;;;469872;253;1250;-74
2022/08/07 01:15:12;;;;;;;;;;;22.80;51.30;;;;;;484126;246;1340;-74
2022/08/07 01:17:13;;;;;;;;;;;22.80;51.00;;;;;;470348;254;1130;-74
2022/08/07 01:19:15;;;;;;;;;;;22.80;51.10;;;;;;469923;253;1429;-74
2022/08/07 01:21:16;;;;;;;;;;;22.80;51.10;;;;;;478435;249;1204;-74
2022/08/07 01:23:17;;;;;;;;;;;22.70;51.20;;;;;;484256;246;1091;-74
2022/08/07 01:25:19;;;;;;;;;;;22.70;51.10;;;;;;470379;253;2206;-73
2022/08/07 01:27:20;;;;;;;;;;;22.70;51.00;;;;;;469910;253;1119;-73
2022/08/07 01:29:21;;;;;;;;;;;22.70;51.10;;;;;;478496;249;1149;-73
2022/08/07 01:31:26;;;;;;;;;;;22.70;51.00;;;;;;484176;246;1161;-74
2022/08/07 01:33:25;;;;;;;;;;;22.70;51.00;;;;;;470258;253;1429;-74
2022/08/07 01:35:26;;;;;;;;;;;22.70;50.90;;;;;;469874;253;1273;-74
2022/08/07 01:37:27;;;;;;;;;;;22.80;50.70;;;;;;478402;249;1159;-74
2022/08/07 01:39:29;;;;;;;;;;;22.80;50.50;;;;;;484210;246;1108;-74
2022/08/07 01:41:30;;;;;;;;;;;22.90;50.40;;;;;;470379;253;1201;-74
2022/08/07 01:43:31;;;;;;;;;;;22.90;50.20;;;;;;469935;253;1112;-74
2022/08/07 01:45:34;;;;;;;;;;;23.00;50.00;;;;;;478376;249;2190;-74
2022/08/07 01:47:34;;;;;;;;;;;23.00;49.90;;;;;;484177;246;1450;-74
2022/08/07 01:49:35;;;;;;;;;;;23.00;50.00;;;;;;470339;253;1067;-74
2022/08/07 01:51:37;;;;;;;;;;;22.90;50.10;;;;;;469900;253;1127;-74
2022/08/07 01:53:38;;;;;;;;;;;23.00;50.10;;;;;;478397;249;977;-74
2022/08/07 01:55:39;;;;;;;;;;;23.00;49.90;;;;;;484143;246;983;-74
2022/08/07 01:57:41;;;;;;;;;;;23.00;50.00;;;;;;470401;253;1088;-74
2022/08/07 01:59:43;;;;;;;;;;;23.10;49.90;;;;;;469873;253;973;-74
2022/08/07 02:01:44;;;;;;;;;;;23.10;49.70;;;;;;484055;246;1427;-74
2022/08/07 02:03:45;;;;;;;;;;;23.10;49.60;;;;;;470375;254;2144;-74
2022/08/07 02:05:47;;;;;;;;;;;23.20;49.50;;;;;;469825;253;1192;-74
2022/08/07 02:07:48;;;;;;;;;;;23.10;49.40;;;;;;484127;246;1127;-74
2022/08/07 02:09:49;;;;;;;;;;;23.10;49.30;;;;;;470376;250;1154;-74
2022/08/07 02:11:51;;;;;;;;;;;23.20;49.30;;;;;;469800;253;1202;-74
2022/08/07 02:13:52;;;;;;;;;;;23.10;49.30;;;;;;478419;249;1138;-74
2022/08/07 02:15:53;;;;;;;;;;;23.10;49.50;;;;;;484144;246;1247;-74
2022/08/07 02:17:55;;;;;;;;;;;23.10;49.30;;;;;;470447;253;1148;-74
2022/08/07 02:19:56;;;;;;;;;;;23.20;49.30;;;;;;469808;253;1112;-73
2022/08/07 02:21:58;;;;;;;;;;;23.20;49.20;;;;;;484164;246;1102;-73
2022/08/07 02:23:59;;;;;;;;;;;23.10;49.10;;;;;;470347;250;2205;-73
2022/08/07 02:26:00;;;;;;;;;;;23.10;49.10;;;;;;469894;253;1237;-73
2022/08/07 02:28:01;;;;;;;;;;;23.10;49.20;;;;;;484141;246;978;-73
2022/08/07 02:30:03;;;;;;;;;;;23.10;49.30;;;;;;470359;254;1088;-74
2022/08/07 02:32:04;;;;;;;;;;;23.10;49.30;;;;;;469844;253;1352;-74
2022/08/07 02:34:06;;;;;;;;;;;23.10;49.20;;;;;;478402;249;1132;-74
2022/08/07 02:36:07;;;;;;;;;;;23.10;49.10;;;;;;484117;246;1143;-74
2022/08/07 02:38:08;;;;;;;;;;;23.10;49.20;;;;;;470442;253;1134;-74
2022/08/07 02:40:10;;;;;;;;;;;23.10;49.00;;;;;;469914;253;1260;-74
2022/08/07 02:42:11;;;;;;;;;;;23.10;49.00;;;;;;484096;246;1128;-74
2022/08/07 02:44:12;;;;;;;;;;;23.10;49.10;;;;;;470327;253;2127;-74
2022/08/07 02:46:14;;;;;;;;;;;23.10;49.10;;;;;;469835;253;1162;-74
2022/08/07 02:48:15;;;;;;;;;;;23.10;49.00;;;;;;478390;249;1183;-74
2022/08/07 02:50:16;;;;;;;;;;;23.10;48.90;;;;;;484156;246;1374;-74
2022/08/07 02:52:18;;;;;;;;;;;23.10;48.70;;;;;;470331;253;1084;-74
2022/08/07 02:54:19;;;;;;;;;;;23.10;48.80;;;;;;469945;253;1126;-74
2022/08/07 02:56:20;;;;;;;;;;;23.10;48.90;;;;;;478374;249;1201;-74
2022/08/07 02:58:22;;;;;;;;;;;23.10;48.80;;;;;;484161;246;1313;-74
2022/08/07 03:00:23;;;;;;;;;;;23.10;48.70;;;;;;470340;250;1166;-73
2022/08/07 03:02:24;;;;;;;;;;;23.10;48.80;;;;;;469855;253;1141;-73
2022/08/07 03:04:26;;;;;;;;;;;23.10;48.70;;;;;;478410;249;2203;-73
2022/08/07 03:06:27;;;;;;;;;;;23.10;48.70;;;;;;484106;246;1152;-74
2022/08/07 03:08:28;;;;;;;;;;;23.10;48.70;;;;;;470343;250;1128;-74
2022/08/07 03:10:30;;;;;;;;;;;23.10;48.70;;;;;;469868;253;1183;-74
2022/08/07 03:12:31;;;;;;;;;;;23.10;48.60;;;;;;484094;246;1164;-74
2022/08/07 03:14:34;;;;;;;;;;;23.10;48.60;;;;;;470289;253;1114;-74
2022/08/07 03:16:34;;;;;;;;;;;23.10;48.50;;;;;;469712;254;1434;-74
2022/08/07 03:18:35;;;;;;;;;;;23.20;48.50;;;;;;478396;249;1232;-73
2022/08/07 03:20:36;;;;;;;;;;;23.10;48.50;;;;;;484150;246;1056;-74
2022/08/07 03:22:38;;;;;;;;;;;23.10;48.70;;;;;;470347;253;1277;-74
2022/08/07 03:24:39;;;;;;;;;;;23.10;48.60;;;;;;469927;253;2203;-74
2022/08/07 03:26:40;;;;;;;;;;;23.10;48.60;;;;;;484125;246;1174;-74
2022/08/07 03:28:42;;;;;;;;;;;23.10;48.60;;;;;;470387;253;1126;-74
2022/08/07 03:30:43;;;;;;;;;;;23.10;48.50;;;;;;469880;253;1088;-74
2022/08/07 03:32:45;;;;;;;;;;;23.10;48.40;;;;;;478412;249;1140;-74
2022/08/07 03:34:46;;;;;;;;;;;23.10;48.50;;;;;;484156;246;1123;-74
2022/08/07 03:36:47;;;;;;;;;;;23.10;48.40;;;;;;470284;253;1208;-74
2022/08/07 03:38:49;;;;;;;;;;;23.10;48.40;;;;;;469870;253;1099;-74
2022/08/07 03:40:50;;;;;;;;;;;23.10;48.60;;;;;;478415;249;1188;-74
2022/08/07 03:42:51;;;;;;;;;;;23.10;48.70;;;;;;484153;246;1089;-74
2022/08/07 03:44:52;;;;;;;;;;;23.00;48.50;;;;;;470390;253;2191;-74
2022/08/07 03:46:54;;;;;;;;;;;23.00;48.60;;;;;;469827;253;1264;-74
2022/08/07 03:48:55;;;;;;;;;;;23.00;48.70;;;;;;484168;246;1149;-74
2022/08/07 03:50:57;;;;;;;;;;;23.00;48.70;;;;;;470345;253;1130;-74
2022/08/07 03:52:58;;;;;;;;;;;23.00;48.70;;;;;;469866;253;1229;-74
2022/08/07 03:54:59;;;;;;;;;;;23.00;48.70;;;;;;484154;246;1272;-73
2022/08/07 03:57:01;;;;;;;;;;;22.90;48.70;;;;;;470271;254;1170;-73
2022/08/07 03:59:02;;;;;;;;;;;22.90;48.60;;;;;;469921;253;1142;-73
2022/08/07 04:01:03;;;;;;;;;;;22.90;48.70;;;;;;478357;245;1279;-73
2022/08/07 04:03:05;;;;;;;;;;;22.90;48.70;;;;;;484213;246;1211;-73
2022/08/07 04:05:06;;;;;;;;;;;22.80;48.80;;;;;;470229;253;2199;-73
2022/08/07 04:07:08;;;;;;;;;;;22.90;48.80;;;;;;469743;253;1081;-73
2022/08/07 04:09:09;;;;;;;;;;;22.90;48.60;;;;;;478364;249;1172;-73
2022/08/07 04:11:10;;;;;;;;;;;22.90;48.50;;;;;;484087;246;1206;-73
2022/08/07 04:13:12;;;;;;;;;;;23.00;48.60;;;;;;470330;253;1277;-73
2022/08/07 04:15:13;;;;;;;;;;;23.10;48.40;;;;;;470006;253;1183;-74
2022/08/07 04:17:15;;;;;;;;;;;23.10;48.40;;;;;;484162;246;1328;-73
2022/08/07 04:19:16;;;;;;;;;;;23.00;48.50;;;;;;470358;254;1196;-73
2022/08/07 04:21:18;;;;;;;;;;;23.10;48.50;;;;;;469829;253;1116;-73
2022/08/07 04:23:19;;;;;;;;;;;23.10;48.40;;;;;;484116;246;994;-73
2022/08/07 04:25:20;;;;;;;;;;;23.00;48.30;;;;;;470336;254;2195;-74
2022/08/07 04:27:22;;;;;;;;;;;22.90;48.50;;;;;;469903;253;1087;-74
2022/08/07 04:29:23;;;;;;;;;;;23.00;48.50;;;;;;484113;246;1079;-74
2022/08/07 04:31:25;;;;;;;;;;;23.00;48.40;;;;;;470274;254;1152;-74
2022/08/07 04:33:26;;;;;;;;;;;23.00;48.40;;;;;;469873;253;1141;-74
2022/08/07 04:35:27;;;;;;;;;;;23.00;48.50;;;;;;478383;249;1080;-74
2022/08/07 04:37:29;;;;;;;;;;;22.90;48.40;;;;;;484092;246;1261;-74
2022/08/07 04:39:30;;;;;;;;;;;22.90;48.40;;;;;;470327;253;1126;-73
2022/08/07 04:41:31;;;;;;;;;;;23.00;48.50;;;;;;469826;253;1126;-73
2022/08/07 04:43:33;;;;;;;;;;;22.90;48.40;;;;;;484111;246;1226;-73
2022/08/07 04:45:34;;;;;;;;;;;22.90;48.40;;;;;;470323;253;2136;-73
2022/08/07 04:47:35;;;;;;;;;;;23.00;48.30;;;;;;469876;253;1166;-73
2022/08/07 04:49:37;;;;;;;;;;;23.00;48.20;;;;;;478436;246;1197;-73
2022/08/07 04:51:38;;;;;;;;;;;23.00;48.30;;;;;;484023;246;1229;-73
2022/08/07 04:53:39;;;;;;;;;;;23.00;48.30;;;;;;470418;253;1226;-73
2022/08/07 04:55:41;;;;;;;;;;;23.00;48.10;;;;;;469881;253;1254;-73
2022/08/07 04:57:42;;;;;;;;;;;23.00;48.10;;;;;;478430;249;1100;-74
2022/08/07 04:59:43;;;;;;;;;;;23.00;48.20;;;;;;484157;246;1166;-74
2022/08/07 05:01:45;;;;;;;;;;;22.90;48.10;;;;;;470335;253;1345;-74
2022/08/07 05:03:46;;;;;;;;;;;22.90;48.20;;;;;;469988;253;1144;-73
2022/08/07 05:05:47;;;;;;;;;;;22.90;48.30;;;;;;484116;246;2172;-74
2022/08/07 05:07:49;;;;;;;;;;;22.90;48.10;;;;;;470339;254;1078;-74
2022/08/07 05:09:50;;;;;;;;;;;22.90;48.10;;;;;;469803;253;1329;-74
2022/08/07 05:11:51;;;;;;;;;;;22.90;48.10;;;;;;484109;246;1120;-74
2022/08/07 05:13:53;;;;;;;;;;;22.80;48.20;;;;;;470348;254;1184;-74
2022/08/07 05:15:54;;;;;;;;;;;22.70;48.50;;;;;;469903;253;1249;-74
2022/08/07 05:17:55;;;;;;;;;;;22.70;48.50;;;;;;478352;249;1145;-74
2022/08/07 05:19:57;;;;;;;;;;;22.60;48.60;;;;;;484132;246;1104;-74
2022/08/07 05:21:58;;;;;;;;;;;22.60;48.80;;;;;;470309;253;1105;-74
2022/08/07 05:23:59;;;;;;;;;;;22.50;48.80;;;;;;469916;253;1374;-74
2022/08/07 05:26:01;;;;;;;;;;;22.50;49.00;;;;;;484101;246;2204;-74
2022/08/07 05:28:02;;;;;;;;;;;22.40;49.10;;;;;;470399;253;1183;-73
2022/08/07 05:30:03;;;;;;;;;;;22.30;49.20;;;;;;469885;253;1237;-73
2022/08/07 05:32:05;;;;;;;;;;;22.30;49.30;;;;;;484146;246;1113;-74
2022/08/07 05:34:06;;;;;;;;;;;22.30;49.40;;;;;;470351;254;1193;-74
2022/08/07 05:36:07;;;;;;;;;;;22.30;49.30;;;;;;470018;253;1328;-74
2022/08/07 05:38:09;;;;;;;;;;;22.30;49.20;;;;;;478394;249;1159;-74
2022/08/07 05:40:10;;;;;;;;;;;22.30;49.20;;;;;;484167;246;1158;-74
2022/08/07 05:42:11;;;;;;;;;;;22.30;49.20;;;;;;470354;253;1201;-74
2022/08/07 05:44:13;;;;;;;;;;;22.30;49.30;;;;;;469895;253;1081;-74
2022/08/07 05:46:14;;;;;;;;;;;22.30;49.30;;;;;;484148;246;2188;-73
2022/08/07 05:48:16;;;;;;;;;;;22.30;49.30;;;;;;470343;254;1089;-73
2022/08/07 05:50:17;;;;;;;;;;;22.30;49.30;;;;;;469893;253;1167;-73
2022/08/07 05:52:18;;;;;;;;;;;22.20;49.20;;;;;;478342;249;982;-73
2022/08/07 05:54:20;;;;;;;;;;;22.30;49.10;;;;;;484232;246;1008;-73
2022/08/07 05:56:21;;;;;;;;;;;22.30;49.20;;;;;;470357;253;1220;-73
2022/08/07 05:58:22;;;;;;;;;;;22.20;49.30;;;;;;469916;253;1260;-73
2022/08/07 06:00:24;;;;;;;;;;;22.20;49.40;;;;;;484113;246;1051;-73
2022/08/07 06:02:25;;;;;;;;;;;22.20;49.30;;;;;;470333;254;1077;-74
2022/08/07 06:04:27;;;;;;;;;;;22.10;49.30;;;;;;469878;253;1162;-74
2022/08/07 06:06:28;;;;;;;;;;;22.10;49.40;;;;;;484045;246;2145;-74
2022/08/07 06:08:29;;;;;;;;;;;22.20;49.40;;;;;;470342;254;1268;-73
2022/08/07 06:10:31;;;;;;;;;;;22.30;49.20;;;;;;469907;253;1188;-73
2022/08/07 06:12:32;;;;;;;;;;;22.20;49.10;;;;;;478418;249;1100;-73
2022/08/07 06:14:33;;;;;;;;;;;22.20;49.10;;;;;;484161;246;1130;-73
2022/08/07 06:16:35;;;;;;;;;;;22.20;49.10;;;;;;470346;253;1542;-73
2022/08/07 06:18:36;;;;;;;;;;;22.20;49.10;;;;;;469898;253;1138;-73
2022/08/07 06:20:37;;;;;;;;;;;22.10;49.20;;;;;;478321;249;1219;-74
2022/08/07 06:22:39;;;;;;;;;;;22.10;49.20;;;;;;484134;246;1234;-74
2022/08/07 06:24:40;;;;;;;;;;;22.10;49.40;;;;;;470440;253;1220;-73
2022/08/07 06:26:41;;;;;;;;;;;22.10;49.40;;;;;;469857;253;2141;-74
2022/08/07 06:28:43;;;;;;;;;;;22.10;49.30;;;;;;478436;249;1081;-74
2022/08/07 06:30:44;;;;;;;;;;;22.10;49.20;;;;;;484119;246;1182;-74
2022/08/07 06:32:45;;;;;;;;;;;22.10;49.30;;;;;;470328;253;1156;-73
2022/08/07 06:34:47;;;;;;;;;;;22.10;49.30;;;;;;469901;253;1147;-73
2022/08/07 06:36:48;;;;;;;;;;;22.10;49.20;;;;;;484174;246;1192;-73
2022/08/07 06:38:49;;;;;;;;;;;22.20;49.20;;;;;;470359;254;1242;-73
2022/08/07 06:40:51;;;;;;;;;;;22.10;49.20;;;;;;469933;253;1139;-74
2022/08/07 06:42:52;;;;;;;;;;;22.10;49.20;;;;;;478428;249;1199;-73
2022/08/07 06:44:53;;;;;;;;;;;22.10;49.30;;;;;;484061;246;1172;-73
2022/08/07 06:46:55;;;;;;;;;;;22.10;49.20;;;;;;470247;253;2202;-73
2022/08/07 06:48:56;;;;;;;;;;;22.20;49.00;;;;;;469852;253;1160;-73
2022/08/07 06:50:57;;;;;;;;;;;22.10;49.10;;;;;;478325;249;1230;-73
2022/08/07 06:52:59;;;;;;;;;;;22.10;49.10;;;;;;484102;246;1047;-73
2022/08/07 06:55:00;;;;;;;;;;;22.10;49.20;;;;;;470301;253;1292;-74
2022/08/07 06:57:02;;;;;;;;;;;22.10;49.10;;;;;;469906;253;1135;-74
2022/08/07 06:59:03;;;;;;;;;;;22.10;49.20;;;;;;478397;249;1128;-73
2022/08/07 07:01:04;;;;;;;;;;;22.00;49.50;;;;;;484157;246;1204;-73
2022/08/07 07:03:06;;;;;;;;;;;22.10;49.80;;;;;;470354;253;1076;-73
2022/08/07 07:05:07;;;;;;;;;;;22.10;50.00;;;;;;469831;253;1152;-74
2022/08/07 07:07:08;;;;;;;;;;;22.20;50.00;;;;;;484134;246;2200;-74
2022/08/07 07:09:10;;;;;;;;;;;22.30;50.00;;;;;;470411;253;1181;-74
2022/08/07 07:11:11;;;;;;;;;;;22.40;50.20;;;;;;469884;253;1103;-74
2022/08/07 07:13:13;;;;;;;;;;;22.40;50.30;;;;;;484139;246;1135;-73
2022/08/07 07:15:14;;;;;;;;;;;22.50;50.10;;;;;;470301;253;1212;-74
2022/08/07 07:17:15;;;;;;;;;;;22.50;50.10;;;;;;469917;253;1147;-74
2022/08/07 07:19:17;;;;;;;;;;;22.60;50.00;;;;;;484196;246;1169;-74
2022/08/07 07:21:18;;;;;;;;;;;22.70;49.80;;;;;;470271;254;1144;-73
2022/08/07 07:23:19;;;;;;;;;;;22.80;49.70;;;;;;469844;253;1172;-73
2022/08/07 07:25:21;;;;;;;;;;;22.80;49.50;;;;;;478403;249;1306;-73
2022/08/07 07:27:22;;;;;;;;;;;22.80;49.40;;;;;;484101;246;2179;-73
2022/08/07 07:29:23;;;;;;;;;;;22.70;49.40;;;;;;470344;253;1186;-73
2022/08/07 07:31:25;;;;;;;;;;;22.70;49.40;;;;;;469830;253;1159;-73
2022/08/07 07:33:26;;;;;;;;;;;22.80;49.20;;;;;;484094;246;1133;-74
2022/08/07 07:35:27;;;;;;;;;;;22.80;48.80;;;;;;470278;254;1141;-74
2022/08/07 07:37:29;;;;;;;;;;;22.80;48.50;;;;;;469834;253;1219;-74
2022/08/07 07:39:30;;;;;;;;;;;22.90;48.40;;;;;;478408;249;1138;-74
2022/08/07 07:41:31;;;;;;;;;;;22.90;48.30;;;;;;484111;246;1174;-73
2022/08/07 07:43:33;;;;;;;;;;;22.90;48.10;;;;;;470341;253;1179;-73
2022/08/07 07:45:34;;;;;;;;;;;22.90;48.00;;;;;;469848;253;1187;-73
2022/08/07 07:47:35;;;;;;;;;;;22.90;48.20;;;;;;478309;249;2198;-73
2022/08/07 07:49:37;;;;;;;;;;;22.90;48.10;;;;;;484081;246;1300;-74
2022/08/07 07:51:38;;;;;;;;;;;22.90;48.10;;;;;;470333;253;1410;-74
2022/08/07 07:53:39;;;;;;;;;;;22.90;48.00;;;;;;469888;253;1084;-74
2022/08/07 07:55:41;;;;;;;;;;;23.00;48.00;;;;;;478323;249;1051;-74
2022/08/07 07:57:42;;;;;;;;;;;23.00;48.10;;;;;;484106;245;1189;-73
2022/08/07 07:59:43;;;;;;;;;;;22.90;48.00;;;;;;470262;253;1165;-73
2022/08/07 08:01:45;;;;;;;;;;;23.00;48.20;;;;;;469806;253;1150;-73
2022/08/07 08:03:46;;;;;;;;;;;23.00;48.40;;;;;;484100;246;1075;-73
2022/08/07 08:05:47;;;;;;;;;;;23.00;48.50;;;;;;470278;253;1156;-73
2022/08/07 08:07:49;;;;;;;;;;;23.00;48.50;;;;;;469849;253;2121;-73
2022/08/07 08:09:51;;;;;;;;;;;23.10;48.20;;;;;;478432;249;1067;-73
2022/08/07 08:11:51;;;;;;;;;;;23.20;48.10;;;;;;484050;246;1443;-73
2022/08/07 08:13:53;;;;;;;;;;;23.30;48.00;;;;;;470292;253;1240;-73
2022/08/07 08:15:54;;;;;;;;;;;23.30;47.80;;;;;;469917;253;1169;-73
2022/08/07 08:17:56;;;;;;;;;;;23.30;47.80;;;;;;484120;246;1067;-73
2022/08/07 08:19:57;;;;;;;;;;;23.30;47.70;;;;;;470279;253;1144;-73
2022/08/07 08:29:07;;;;;;;;;;;23.30;47.60;;;;;;463573;254;1291;-73
2022/08/07 08:31:07;;;;;;;;;;;23.20;47.60;;;;;;484036;246;1270;-73
2022/08/07 08:33:12;;;;;;;;;;;23.20;47.70;;;;;;470232;254;1277;-73
2022/08/07 08:35:10;;;;;;;;;;;23.20;47.60;;;;;;469567;254;1432;-73
2022/08/07 08:37:12;;;;;;;;;;;23.20;47.70;;;;;;484055;246;1247;-73
2022/08/07 08:39:13;;;;;;;;;;;23.20;47.60;;;;;;478357;249;1109;-73
2022/08/07 08:41:15;;;;;;;;;;;23.20;47.50;;;;;;484153;246;1194;-73
2022/08/07 08:43:16;;;;;;;;;;;23.20;47.40;;;;;;470310;250;1152;-74
2022/08/07 08:45:17;;;;;;;;;;;23.20;47.30;;;;;;469830;253;1191;-73
2022/08/07 08:47:19;;;;;;;;;;;23.20;47.30;;;;;;478321;249;2186;-73
2022/08/07 08:49:20;;;;;;;;;;;23.20;47.30;;;;;;484083;246;1109;-73
2022/08/07 08:51:21;;;;;;;;;;;23.20;47.30;;;;;;470266;250;1205;-73
2022/08/07 08:53:25;;;;;;;;;;;23.20;47.30;;;;;;469794;253;1263;-73
2022/08/07 08:55:24;;;;;;;;;;;23.10;47.50;;;;;;478201;249;1290;-74
2022/08/07 08:57:26;;;;;;;;;;;23.10;47.50;;;;;;484076;246;1165;-73
2022/08/07 08:59:27;;;;;;;;;;;23.10;47.40;;;;;;470297;253;1284;-73
2022/08/07 09:01:29;;;;;;;;;;;23.10;47.70;;;;;;469892;253;1178;-73
2022/08/07 09:03:30;;;;;;;;;;;23.20;47.80;;;;;;478373;249;1077;-73
2022/08/07 09:05:31;;;;;;;;;;;23.20;47.80;;;;;;484075;246;1208;-73
2022/08/07 09:07:33;;;;;;;;;;;23.30;47.70;;;;;;470267;253;2208;-74
2022/08/07 09:09:34;;;;;;;;;;;23.40;47.70;;;;;;469867;253;1009;-73
2022/08/07 09:11:36;;;;;;;;;;;23.50;47.70;;;;;;478370;245;1009;-73
2022/08/07 09:13:37;;;;;;;;;;;23.60;47.60;;;;;;484129;246;1054;-73
2022/08/07 09:15:38;;;;;;;;;;;23.60;47.40;;;;;;470351;253;1248;-73
2022/08/07 09:17:40;;;;;;;;;;;23.70;47.40;;;;;;469888;253;1334;-73
2022/08/07 09:19:41;;;;;;;;;;;23.70;47.40;;;;;;478436;249;978;-73
2022/08/07 09:21:42;;;;;;;;;;;23.70;47.40;;;;;;484120;246;1074;-73
2022/08/07 09:23:44;;;;;;;;;;;23.70;47.30;;;;;;470395;253;1149;-73
2022/08/07 09:25:45;;;;;;;;;;;23.70;47.20;;;;;;469918;253;1043;-73
2022/08/07 09:27:47;;;;;;;;;;;23.70;47.20;;;;;;478392;249;2203;-73
2022/08/07 09:29:48;;;;;;;;;;;23.70;47.30;;;;;;484134;246;1088;-73
2022/08/07 09:31:49;;;;;;;;;;;23.60;47.30;;;;;;470312;253;957;-74
2022/08/07 09:33:50;;;;;;;;;;;23.60;47.30;;;;;;469847;253;1085;-74
2022/08/07 09:35:53;;;;;;;;;;;23.60;47.20;;;;;;478336;249;1004;-74
2022/08/07 09:37:53;;;;;;;;;;;23.50;47.10;;;;;;484120;246;1449;-74
2022/08/07 09:39:55;;;;;;;;;;;23.50;47.10;;;;;;470394;250;1093;-74
2022/08/07 09:41:56;;;;;;;;;;;23.40;47.20;;;;;;469856;253;1143;-74
2022/08/07 09:43:57;;;;;;;;;;;23.30;47.20;;;;;;478351;249;1191;-74
2022/08/07 09:45:59;;;;;;;;;;;23.30;47.30;;;;;;484135;246;1210;-74
2022/08/07 09:48:00;;;;;;;;;;;23.20;47.20;;;;;;478342;246;2187;-74
2022/08/07 09:50:01;;;;;;;;;;;23.20;47.40;;;;;;484080;246;1100;-74
2022/08/07 09:52:03;;;;;;;;;;;23.10;47.40;;;;;;470250;253;1431;-74
2022/08/07 09:54:04;;;;;;;;;;;23.10;47.50;;;;;;469883;253;1121;-74
2022/08/07 09:56:05;;;;;;;;;;;23.00;47.50;;;;;;478296;249;1177;-74
2022/08/07 09:58:07;;;;;;;;;;;23.10;47.40;;;;;;484182;246;1118;-74
2022/08/07 10:00:09;;;;;;;;;;;23.10;47.50;;;;;;470321;253;1435;-74
2022/08/07 10:02:09;;;;;;;;;;;23.00;47.50;;;;;;469832;253;1214;-74
2022/08/07 10:04:11;;;;;;;;;;;23.00;47.70;;;;;;478383;249;1113;-74
2022/08/07 10:06:13;;;;;;;;;;;22.80;47.80;;;;;;484105;246;1146;-74
2022/08/07 10:08:14;;;;;;;;;;;22.90;48.00;;;;;;470311;253;2119;-74
2022/08/07 10:10:15;;;;;;;;;;;22.80;48.00;;;;;;469894;253;1127;-74
2022/08/07 10:12:17;;;;;;;;;;;22.90;48.30;;;;;;478416;243;1269;-74
2022/08/07 10:14:18;;;;;;;;;;;22.90;48.20;;;;;;484198;246;1158;-74
2022/08/07 10:16:19;;;;;;;;;;;22.90;48.20;;;;;;470269;253;1329;-74
2022/08/07 10:18:21;;;;;;;;;;;22.90;48.10;;;;;;469854;253;1161;-73
2022/08/07 10:20:22;;;;;;;;;;;22.90;47.90;;;;;;478350;249;1100;-73
2022/08/07 10:22:24;;;;;;;;;;;22.90;48.00;;;;;;484115;242;1157;-73
2022/08/07 10:24:25;;;;;;;;;;;22.80;48.10;;;;;;470371;253;1226;-74
2022/08/07 10:26:26;;;;;;;;;;;22.80;48.20;;;;;;469822;253;1265;-74
2022/08/07 10:28:28;;;;;;;;;;;22.80;48.30;;;;;;484166;246;2188;-74
2022/08/07 10:30:29;;;;;;;;;;;22.70;48.10;;;;;;470305;254;1179;-74
2022/08/07 10:32:30;;;;;;;;;;;22.80;48.10;;;;;;469907;253;1193;-73
2022/08/07 10:34:32;;;;;;;;;;;22.80;48.00;;;;;;478369;249;1129;-73
2022/08/07 10:36:33;;;;;;;;;;;22.90;47.90;;;;;;484040;246;1150;-73
2022/08/07 10:38:34;;;;;;;;;;;22.90;47.80;;;;;;470331;253;1200;-73
2022/08/07 10:40:37;;;;;;;;;;;22.90;47.90;;;;;;469871;253;1281;-73
2022/08/07 10:42:37;;;;;;;;;;;22.90;47.80;;;;;;478304;246;1429;-73
2022/08/07 10:44:38;;;;;;;;;;;22.90;47.50;;;;;;484123;246;1186;-73
2022/08/07 10:46:40;;;;;;;;;;;23.00;47.40;;;;;;470206;253;1212;-73
2022/08/07 10:48:43;;;;;;;;;;;22.90;47.40;;;;;;469823;253;2199;-73
2022/08/07 10:50:43;;;;;;;;;;;22.90;47.50;;;;;;484029;246;1449;-74
2022/08/07 10:52:44;;;;;;;;;;;22.90;47.40;;;;;;470356;253;1186;-74
2022/08/07 10:54:45;;;;;;;;;;;22.90;47.50;;;;;;469865;253;1182;-74
2022/08/07 10:56:47;;;;;;;;;;;22.90;47.60;;;;;;484078;246;1407;-74
2022/08/07 10:58:48;;;;;;;;;;;22.90;47.60;;;;;;470341;254;1155;-73
2022/08/07 11:00:50;;;;;;;;;;;22.90;47.60;;;;;;469879;253;1185;-73
2022/08/07 11:02:52;;;;;;;;;;;22.90;47.50;;;;;;478378;249;1185;-73
2022/08/07 11:04:53;;;;;;;;;;;22.90;47.60;;;;;;483999;246;1104;-73
2022/08/07 11:06:54;;;;;;;;;;;23.00;47.70;;;;;;470235;250;2133;-73
2022/08/07 11:08:56;;;;;;;;;;;23.10;47.80;;;;;;469800;253;1087;-73
2022/08/07 11:10:58;;;;;;;;;;;23.20;47.70;;;;;;478341;246;1168;-73
2022/08/07 11:12:59;;;;;;;;;;;23.30;47.60;;;;;;484064;246;1209;-73
2022/08/07 11:15:00;;;;;;;;;;;23.40;47.70;;;;;;470313;253;1200;-73
2022/08/07 11:17:01;;;;;;;;;;;23.50;47.60;;;;;;469875;253;1144;-73
2022/08/07 11:19:03;;;;;;;;;;;23.60;47.50;;;;;;478416;249;1122;-73
2022/08/07 11:21:04;;;;;;;;;;;23.60;47.40;;;;;;484120;246;1382;-73
2022/08/07 11:23:05;;;;;;;;;;;23.60;47.50;;;;;;470522;253;1199;-73
2022/08/07 11:25:07;;;;;;;;;;;23.60;47.30;;;;;;469805;253;1086;-73
2022/08/07 11:27:09;;;;;;;;;;;23.60;47.30;;;;;;478255;249;2199;-73
2022/08/07 11:29:10;;;;;;;;;;;23.60;47.10;;;;;;484108;246;1217;-74
2022/08/07 11:31:11;;;;;;;;;;;23.60;47.20;;;;;;470293;253;1248;-74
2022/08/07 11:33:12;;;;;;;;;;;23.50;47.10;;;;;;469889;253;1096;-74
2022/08/07 11:35:14;;;;;;;;;;;23.50;47.20;;;;;;478333;249;1124;-74
2022/08/07 11:37:15;;;;;;;;;;;23.50;47.20;;;;;;484090;246;1091;-74
2022/08/07 11:39:17;;;;;;;;;;;23.40;47.20;;;;;;470319;253;1081;-74
2022/08/07 11:41:18;;;;;;;;;;;23.40;47.10;;;;;;469821;253;1233;-74
2022/08/07 11:43:19;;;;;;;;;;;23.40;47.10;;;;;;484099;246;1068;-74
2022/08/07 11:45:21;;;;;;;;;;;23.30;47.00;;;;;;478431;249;1187;-74
2022/08/07 11:47:23;;;;;;;;;;;23.20;47.10;;;;;;484200;246;2220;-74
2022/08/07 11:49:24;;;;;;;;;;;23.20;47.20;;;;;;470386;253;1114;-74
2022/08/07 11:51:26;;;;;;;;;;;23.10;47.30;;;;;;469868;253;1092;-74
2022/08/07 11:53:27;;;;;;;;;;;23.10;47.40;;;;;;484166;246;1128;-74
2022/08/07 11:55:28;;;;;;;;;;;23.00;47.40;;;;;;470296;254;1079;-74
2022/08/07 11:57:30;;;;;;;;;;;23.00;47.40;;;;;;469819;253;1163;-74
2022/08/07 11:59:31;;;;;;;;;;;23.00;47.40;;;;;;484145;246;1257;-74
2022/08/07 12:01:33;;;;;;;;;;;23.00;47.40;;;;;;470315;254;1299;-74
2022/08/07 12:03:34;;;;;;;;;;;23.00;47.30;;;;;;469884;253;1120;-74